Time,TemperatureF,DewpointF,PressureIn,WindDirection,WindDirectionDegrees,WindSpeedMPH,WindSpeedGustMPH,Humidity,HourlyPrecipIn,Conditions,Clouds,dailyrainin,SolarRadiationWatts/m^2,SoftwareType,DateUTC
2013-03-02 00:11:00,30.0,21.0,-100.00,NW,312,2.0,6.0,69,0.00,,,0.00,0.000000,,2013-03-02 07:11:00,
2013-03-02 00:21:00,30.0,21.0,-100.00,NW,312,2.0,6.0,69,0.00,,,0.00,0.000000,,2013-03-02 07:21:00,
2013-03-02 00:32:00,30.0,21.0,-100.00,NW,312,2.0,6.0,69,0.00,,,0.00,0.000000,,2013-03-02 07:32:00,
2013-03-02 00:42:00,30.0,21.0,-100.00,NW,312,2.0,6.0,69,0.00,,,0.00,0.000000,,2013-03-02 07:42:00,
2013-03-02 00:51:00,30.0,21.0,-100.00,SW,230,0.0,4.0,70,0.00,,,0.00,0.000000,,2013-03-02 07:51:00,
2013-03-02 01:11:00,30.0,21.0,-100.00,SW,230,0.0,4.0,70,0.00,,,0.00,0.000000,,2013-03-02 08:11:00,
2013-03-02 01:21:00,30.0,21.0,-100.00,SW,230,0.0,4.0,70,0.00,,,0.00,0.000000,,2013-03-02 08:21:00,
2013-03-02 01:32:00,30.0,21.0,-100.00,SW,230,0.0,4.0,70,0.00,,,0.00,0.000000,,2013-03-02 08:32:00,
2013-03-02 01:42:00,30.0,21.0,-100.00,SW,230,0.0,4.0,70,0.00,,,0.00,0.000000,,2013-03-02 08:42:00,
2013-03-02 01:51:00,27.0,20.0,-100.00,WNW,290,3.0,4.0,76,0.00,,,0.00,0.000000,,2013-03-02 08:51:00,
2013-03-02 02:11:00,27.0,20.0,-100.00,WNW,290,3.0,4.0,76,0.00,,,0.00,0.000000,,2013-03-02 09:11:00,
2013-03-02 02:21:00,27.0,20.0,-100.00,WNW,290,3.0,4.0,76,0.00,,,0.00,0.000000,,2013-03-02 09:21:00,
2013-03-02 02:31:00,27.0,20.0,-100.00,WNW,290,3.0,4.0,76,0.00,,,0.00,0.000000,,2013-03-02 09:31:00,
2013-03-02 02:42:00,27.0,20.0,-100.00,WNW,290,3.0,4.0,76,0.00,,,0.00,0.000000,,2013-03-02 09:42:00,
2013-03-02 02:51:00,26.0,19.0,-100.00,WSW,239,3.0,6.0,76,0.00,,,0.00,0.000000,,2013-03-02 09:51:00,
2013-03-02 03:15:00,26.0,19.0,-100.00,WSW,239,3.0,6.0,76,0.00,,,0.00,0.000000,,2013-03-02 10:15:00,
2013-03-02 03:21:00,26.0,19.0,-100.00,WSW,239,3.0,6.0,76,0.00,,,0.00,0.000000,,2013-03-02 10:21:00,
2013-03-02 03:31:00,26.0,19.0,-100.00,WSW,239,3.0,6.0,76,0.00,,,0.00,0.000000,,2013-03-02 10:31:00,
2013-03-02 03:42:00,26.0,19.0,-100.00,WSW,239,3.0,6.0,76,0.00,,,0.00,0.000000,,2013-03-02 10:42:00,
2013-03-02 05:11:00,25.0,20.0,-100.00,East,97,1.0,2.0,81,-99.99,,,0.00,0.000000,,2013-03-02 12:11:00,
2013-03-02 05:21:00,25.0,20.0,-100.00,East,97,1.0,2.0,81,-99.99,,,0.00,0.000000,,2013-03-02 12:21:00,
2013-03-02 05:32:00,25.0,20.0,-100.00,East,97,1.0,2.0,81,-99.99,,,0.00,0.000000,,2013-03-02 12:32:00,
2013-03-02 05:51:00,24.0,20.0,-100.00,NNW,343,1.0,3.0,83,-99.99,,,0.00,0.000000,,2013-03-02 12:51:00,
2013-03-02 06:11:00,24.0,20.0,-100.00,NNW,343,1.0,3.0,83,-99.99,,,0.00,0.000000,,2013-03-02 13:11:00,
2013-03-02 06:21:00,24.0,20.0,-100.00,NNW,343,1.0,3.0,83,-99.99,,,0.00,0.000000,,2013-03-02 13:21:00,
2013-03-02 06:31:00,24.0,20.0,-100.00,NNW,343,1.0,3.0,83,-99.99,,,0.00,0.000000,,2013-03-02 13:31:00,
2013-03-02 06:41:00,24.0,20.0,-100.00,NNW,343,1.0,3.0,83,-99.99,,,0.00,0.000000,,2013-03-02 13:41:00,
2013-03-02 07:21:00,25.0,18.0,-100.00,SE,129,4.0,7.0,74,0.00,,,0.00,2.000000,,2013-03-02 14:21:00,
2013-03-02 07:32:00,25.0,18.0,-100.00,SE,129,4.0,7.0,74,0.00,,,0.00,2.000000,,2013-03-02 14:32:00,
2013-03-02 08:11:00,32.0,21.0,-100.00,ESE,105,1.0,5.0,64,0.00,,,0.00,93.000000,,2013-03-02 15:11:00,
2013-03-02 08:21:00,32.0,21.0,-100.00,ESE,105,1.0,5.0,64,0.00,,,0.00,93.000000,,2013-03-02 15:21:00,
2013-03-02 09:11:00,35.0,22.0,-100.00,SE,125,2.0,5.0,59,-99.99,,,0.00,343.000000,,2013-03-02 16:11:00,
2013-03-02 09:21:00,35.0,22.0,-100.00,SE,125,2.0,5.0,59,-99.99,,,0.00,343.000000,,2013-03-02 16:21:00,
2013-03-02 09:31:00,35.0,22.0,-100.00,SE,125,2.0,5.0,59,-99.99,,,0.00,343.000000,,2013-03-02 16:31:00,
2013-03-02 11:11:00,44.0,26.0,-100.00,North,3,1.0,5.0,48,-99.99,,,0.00,636.000000,,2013-03-02 18:11:00,
2013-03-02 11:22:00,44.0,26.0,-100.00,North,3,1.0,5.0,48,-99.99,,,0.00,636.000000,,2013-03-02 18:22:00,
2013-03-02 12:11:00,50.0,26.0,-100.00,WNW,297,0.0,3.0,39,0.00,,,0.00,800.000000,,2013-03-02 19:11:00,
2013-03-02 12:21:00,50.0,26.0,-100.00,WNW,297,0.0,3.0,39,0.00,,,0.00,800.000000,,2013-03-02 19:21:00,
2013-03-02 13:21:00,54.0,26.0,-100.00,West,261,1.0,5.0,34,0.00,,,0.00,835.000000,,2013-03-02 20:21:00,
2013-03-02 13:51:00,51.0,24.0,-100.00,SW,234,2.0,6.0,35,-99.99,,,0.00,849.000000,,2013-03-02 20:51:00,
2013-03-02 14:11:00,51.0,24.0,-100.00,SW,234,2.0,6.0,35,-99.99,,,0.00,849.000000,,2013-03-02 21:11:00,
2013-03-02 14:22:00,51.0,24.0,-100.00,SW,234,2.0,6.0,35,-99.99,,,0.00,849.000000,,2013-03-02 21:22:00,
2013-03-02 14:31:00,51.0,24.0,-100.00,SW,234,2.0,6.0,35,-99.99,,,0.00,849.000000,,2013-03-02 21:31:00,
2013-03-02 14:41:00,51.0,24.0,-100.00,SW,234,2.0,6.0,35,-99.99,,,0.00,849.000000,,2013-03-02 21:41:00,
2013-03-02 14:51:00,53.0,24.0,-100.00,NNW,334,2.0,8.0,32,0.00,,,0.00,743.000000,,2013-03-02 21:51:00,
2013-03-02 15:11:00,53.0,24.0,-100.00,NNW,334,2.0,8.0,32,0.00,,,0.00,743.000000,,2013-03-02 22:11:00,
2013-03-02 15:21:00,53.0,24.0,-100.00,NNW,334,2.0,8.0,32,0.00,,,0.00,743.000000,,2013-03-02 22:21:00,
2013-03-02 15:32:00,53.0,24.0,-100.00,NNW,334,2.0,8.0,32,0.00,,,0.00,743.000000,,2013-03-02 22:32:00,
2013-03-02 15:42:00,53.0,24.0,-100.00,NNW,334,2.0,8.0,32,0.00,,,0.00,743.000000,,2013-03-02 22:42:00,
2013-03-02 15:51:00,53.0,24.0,-100.00,WSW,247,2.0,5.0,32,0.00,,,-99.99,583.000000,,2013-03-02 22:51:00,
2013-03-02 16:11:00,53.0,24.0,-100.00,WSW,247,2.0,5.0,32,0.00,,,-99.99,583.000000,,2013-03-02 23:11:00,
2013-03-02 16:21:00,53.0,24.0,-100.00,WSW,247,2.0,5.0,32,0.00,,,-99.99,583.000000,,2013-03-02 23:21:00,
2013-03-02 16:32:00,53.0,24.0,-100.00,WSW,247,2.0,5.0,32,0.00,,,-99.99,583.000000,,2013-03-02 23:32:00,
2013-03-02 16:42:00,53.0,24.0,-100.00,WSW,247,2.0,5.0,32,0.00,,,-99.99,583.000000,,2013-03-02 23:42:00,
2013-03-02 16:51:00,51.0,23.0,-100.00,SW,221,1.0,4.0,33,0.00,,,0.00,330.000000,,2013-03-02 23:51:00,
2013-03-02 17:11:00,51.0,23.0,-100.00,SW,221,1.0,4.0,33,0.00,,,0.00,330.000000,,2013-03-03 00:11:00,
2013-03-02 17:22:00,51.0,23.0,-100.00,SW,221,1.0,4.0,33,0.00,,,0.00,330.000000,,2013-03-03 00:22:00,
2013-03-02 17:32:00,51.0,23.0,-100.00,SW,221,1.0,4.0,33,0.00,,,0.00,330.000000,,2013-03-03 00:32:00,
2013-03-02 17:42:00,51.0,23.0,-100.00,SW,221,1.0,4.0,33,0.00,,,0.00,330.000000,,2013-03-03 00:42:00,
2013-03-02 17:51:00,47.0,23.0,-100.00,SSW,196,3.0,4.0,38,0.00,,,0.00,130.000000,,2013-03-03 00:51:00,
2013-03-02 18:11:00,47.0,23.0,-100.00,SSW,196,3.0,4.0,38,0.00,,,0.00,130.000000,,2013-03-03 01:11:00,
2013-03-02 18:21:00,47.0,23.0,-100.00,SSW,196,3.0,4.0,38,0.00,,,0.00,130.000000,,2013-03-03 01:21:00,
2013-03-02 18:31:00,47.0,23.0,-100.00,SSW,196,3.0,4.0,38,0.00,,,0.00,130.000000,,2013-03-03 01:31:00,
2013-03-02 18:41:00,47.0,23.0,-100.00,SSW,196,3.0,4.0,38,0.00,,,0.00,130.000000,,2013-03-03 01:41:00,
2013-03-02 19:21:00,45.0,22.0,-100.00,South,185,2.0,4.0,40,0.00,,,0.00,4.000000,,2013-03-03 02:21:00,
2013-03-02 19:31:00,45.0,22.0,-100.00,South,185,2.0,4.0,40,0.00,,,0.00,4.000000,,2013-03-03 02:31:00,
2013-03-02 20:11:00,43.0,22.0,-100.00,SSE,150,0.0,5.0,42,-99.99,,,0.00,0.000000,,2013-03-03 03:11:00,
2013-03-02 20:21:00,43.0,22.0,-100.00,SSE,150,0.0,5.0,42,-99.99,,,0.00,0.000000,,2013-03-03 03:21:00,
2013-03-02 20:31:00,43.0,22.0,-100.00,SSE,150,0.0,5.0,42,-99.99,,,0.00,0.000000,,2013-03-03 03:31:00,
2013-03-02 21:11:00,40.0,22.0,-100.00,WSW,241,3.0,8.0,48,-99.99,,,0.00,0.000000,,2013-03-03 04:11:00,
2013-03-02 21:21:00,40.0,22.0,-100.00,WSW,241,3.0,8.0,48,-99.99,,,0.00,0.000000,,2013-03-03 04:21:00,
2013-03-02 21:31:00,40.0,22.0,-100.00,WSW,241,3.0,8.0,48,-99.99,,,0.00,0.000000,,2013-03-03 04:31:00,
2013-03-02 21:51:00,37.0,22.0,-100.00,South,184,3.0,8.0,55,-99.99,,,0.00,0.000000,,2013-03-03 04:51:00,
2013-03-02 22:11:00,37.0,22.0,-100.00,South,184,3.0,8.0,55,-99.99,,,0.00,0.000000,,2013-03-03 05:11:00,
2013-03-02 22:22:00,37.0,22.0,-100.00,South,184,3.0,8.0,55,-99.99,,,0.00,0.000000,,2013-03-03 05:22:00,
2013-03-02 22:32:00,37.0,22.0,-100.00,South,184,3.0,8.0,55,-99.99,,,0.00,0.000000,,2013-03-03 05:32:00,
2013-03-02 22:42:00,37.0,22.0,-100.00,South,184,3.0,8.0,55,-99.99,,,0.00,0.000000,,2013-03-03 05:42:00,
2013-03-02 22:51:00,35.0,23.0,-100.00,West,280,3.0,6.0,60,0.00,,,0.00,0.000000,,2013-03-03 05:51:00,
2013-03-02 23:21:00,35.0,23.0,-100.00,West,280,3.0,6.0,60,0.00,,,0.00,0.000000,,2013-03-03 06:21:00,
2013-03-02 23:31:00,35.0,23.0,-100.00,West,280,3.0,6.0,60,0.00,,,0.00,0.000000,,2013-03-03 06:31:00,
2013-03-02 23:42:00,35.0,23.0,-100.00,West,280,3.0,6.0,60,0.00,,,0.00,0.000000,,2013-03-03 06:42:00,
2013-03-02 23:51:00,36.0,22.0,-100.00,WSW,253,3.0,4.0,57,0.00,,,0.00,0.000000,,2013-03-03 06:51:00,